Warren, Texas
Current Conditions -  °F | °C
As of 2:55 AM on Monday 20 Oct 2014 (Local Time) from KJAS Reporting Station
Clear Clear  
Wind Chill: 13°   Ceiling: Unl
Heat Index: 13°   Visibility: 10mi
Dew Point: 11°   Wind: 3mph
Humidity: 92%   Direction: 70°ENE
Pressure: 30.07"   Gusts: NA
Location:  30.62°N, 94.41°W
Report Text: KJAS 200755Z AUTO 07003KT 10SM CLR 13/11 A3007 RMK AO2 T01260113
Loading
Personal Weather Stations






























Interactive Weather Map
Tropical Storm Tracking
New forecast layout! Learn more

10-Day Weather Forecast

Advertisements
Track Severe Weather on mobile